createdAt,value
2019-04-20T00:01:03.501Z,92.00
2019-04-20T00:03:37.989Z,91.90
2019-04-20T00:06:04.687Z,92.30
2019-04-20T00:08:37.701Z,91.80
2019-04-20T00:11:15.639Z,91.20
2019-04-20T00:13:48.803Z,91.70
2019-04-20T00:16:08.687Z,92.50
2019-04-20T00:18:43.081Z,92.70
2019-04-20T00:21:29.003Z,92.50
2019-04-20T00:24:07.386Z,92.50
2019-04-20T00:27:04.748Z,92.30
2019-04-20T00:29:21.310Z,92.90
2019-04-20T00:31:49.766Z,92.30
2019-04-20T00:34:15.685Z,91.60
2019-04-20T00:36:39.237Z,91.50
2019-04-20T00:39:11.866Z,91.90
2019-04-20T00:41:51.011Z,91.80
2019-04-20T00:44:20.674Z,91.50
2019-04-20T00:46:56.919Z,92.10
2019-04-20T00:49:35.076Z,92.80
2019-04-20T00:52:15.191Z,92.40
2019-04-20T00:54:18.149Z,92.80
2019-04-20T00:56:47.880Z,92.80
2019-04-20T00:59:31.557Z,92.60
2019-04-20T01:02:10.801Z,92.10
2019-04-20T01:04:41.058Z,92.30
2019-04-20T01:07:11.255Z,92.80
2019-04-20T01:09:30.884Z,92.50
2019-04-20T01:12:04.056Z,92.60
2019-04-20T01:14:40.611Z,93.10
2019-04-20T01:17:11.782Z,93.00
2019-04-20T01:19:34.669Z,92.50
2019-04-20T01:22:07.967Z,92.30
2019-04-20T01:24:40.484Z,92.40
2019-04-20T01:27:25.897Z,91.40
2019-04-20T01:29:45.668Z,91.50
2019-04-20T01:32:22.375Z,92.00
2019-04-20T01:34:52.375Z,92.40
2019-04-20T01:37:25.910Z,92.50
2019-04-20T01:39:49.177Z,91.90
2019-04-20T01:42:15.253Z,92.20
2019-04-20T01:44:48.588Z,92.90
2019-04-20T01:47:17.076Z,93.20
2019-04-20T01:49:53.949Z,93.10
2019-04-20T01:52:26.910Z,93.20
2019-04-20T01:55:15.775Z,93.20
2019-04-20T01:57:54.574Z,92.50
2019-04-20T02:00:23.272Z,92.70
2019-04-20T02:02:56.518Z,92.50
2019-04-20T02:05:27.534Z,92.70
2019-04-20T02:07:54.169Z,92.80
2019-04-20T02:10:33.291Z,92.40
2019-04-20T02:12:59.870Z,92.80
2019-04-20T02:15:32.687Z,91.90
2019-04-20T02:18:07.466Z,92.10
2019-04-20T02:20:51.491Z,92.50
2019-04-20T02:23:14.996Z,92.90
2019-04-20T02:25:31.657Z,93.30
2019-04-20T02:28:19.207Z,93.50
2019-04-20T02:31:15.622Z,93.20
2019-04-20T02:33:42.854Z,92.90
2019-04-20T02:39:05.702Z,93.00
2019-04-20T02:41:17.752Z,92.70
2019-04-20T02:43:57.656Z,92.50
2019-04-20T02:46:17.109Z,92.00
2019-04-20T02:48:52.489Z,91.60
2019-04-20T02:51:23.572Z,92.10
2019-04-20T02:54:02.155Z,92.30
2019-04-20T02:59:13.350Z,92.40
2019-04-20T03:01:29.120Z,92.80
2019-04-20T03:03:44.924Z,92.50
2019-04-20T03:06:22.064Z,93.10
2019-04-20T03:09:04.792Z,93.30
2019-04-20T03:11:42.606Z,93.80
2019-04-20T03:14:08.421Z,93.40
2019-04-20T03:16:32.199Z,93.50
2019-04-20T03:19:02.997Z,93.30
2019-04-20T03:21:47.886Z,93.30
2019-04-20T03:24:21.518Z,93.60
2019-04-20T03:26:40.330Z,93.10
2019-04-20T03:29:35.962Z,92.90
2019-04-20T03:32:40.219Z,92.70
2019-04-20T03:37:17.205Z,93.20
2019-04-20T03:39:37.601Z,93.10
2019-04-20T03:41:54.977Z,93.00
2019-04-20T03:44:26.468Z,92.90
2019-04-20T03:46:59.792Z,92.50
2019-04-20T03:49:52.841Z,92.50
2019-04-20T03:52:27.785Z,92.90
2019-04-20T03:54:54.359Z,93.00
2019-04-20T03:57:40.965Z,93.40
2019-04-20T04:00:24.425Z,93.00
2019-04-20T04:05:30.307Z,93.20
2019-04-20T04:07:46.777Z,93.60
2019-04-20T04:10:24.993Z,93.00
2019-04-20T04:13:18.605Z,93.10
2019-04-20T04:15:55.589Z,93.30
2019-04-20T04:18:29.800Z,92.70
2019-04-20T04:21:00.057Z,92.80
2019-04-20T04:23:40.807Z,92.90
2019-04-20T04:26:12.957Z,92.70
2019-04-20T04:28:43.316Z,92.20
2019-04-20T04:31:16.416Z,92.40
2019-04-20T04:34:04.357Z,92.20
2019-04-20T04:36:17.798Z,92.40
2019-04-20T04:39:08.676Z,92.00
2019-04-20T04:43:53.867Z,91.70
2019-04-20T04:46:07.965Z,91.50
2019-04-20T04:48:42.772Z,91.50
2019-04-20T04:51:15.460Z,91.10
2019-04-20T04:53:52.461Z,91.00
2019-04-20T04:56:17.099Z,90.70
2019-04-20T04:58:43.008Z,90.40
2019-04-20T05:01:20.065Z,90.20
2019-04-20T05:04:11.516Z,90.30
2019-04-20T05:06:31.737Z,90.50
2019-04-20T05:08:53.059Z,90.70
2019-04-20T05:11:19.704Z,90.40
2019-04-20T05:13:56.700Z,90.20
2019-04-20T05:16:43.191Z,89.60
2019-04-20T05:19:13.374Z,89.30
2019-04-20T05:21:49.860Z,90.10
2019-04-20T05:24:28.823Z,90.70
2019-04-20T05:27:08.959Z,91.20
2019-04-20T05:29:24.915Z,90.80
2019-04-20T05:31:55.902Z,91.00
2019-04-20T05:34:45.346Z,90.90
2019-04-20T05:37:20.835Z,91.20
2019-04-20T05:39:47.409Z,90.60
2019-04-20T05:42:17.905Z,90.90
2019-04-20T05:44:50.070Z,90.20
2019-04-20T05:47:18.161Z,83.90
2019-04-20T05:49:45.060Z,83.20
2019-04-20T05:52:36.134Z,81.30
2019-04-20T05:54:58.109Z,80.20
2019-04-20T06:00:01.810Z,78.70
2019-04-20T06:02:27.348Z,78.90
2019-04-20T06:07:34.778Z,79.10
2019-04-20T06:10:06.580Z,76.80
2019-04-20T06:12:36.311Z,75.40
2019-04-20T06:15:15.615Z,73.90
2019-04-20T06:18:10.669Z,72.80
2019-04-20T06:20:41.114Z,79.00
2019-04-20T06:23:42.778Z,79.80
2019-04-20T06:26:26.853Z,77.60
2019-04-20T06:28:40.020Z,71.80
2019-04-20T06:31:18.002Z,75.50
2019-04-20T06:36:49.641Z,69.20
2019-04-20T06:39:20.417Z,68.90
2019-04-20T06:42:08.114Z,67.50
2019-04-20T06:44:30.424Z,67.30
2019-04-20T06:49:28.913Z,65.70
2019-04-20T06:52:14.222Z,66.10
2019-04-20T06:54:36.152Z,65.10
2019-04-20T06:57:05.840Z,64.90
2019-04-20T06:59:43.438Z,60.50
2019-04-20T07:02:17.293Z,61.50
2019-04-20T07:04:48.577Z,57.90
2019-04-20T07:07:17.097Z,57.90
2019-04-20T07:09:58.238Z,57.70
2019-04-20T07:12:14.347Z,54.50
2019-04-20T07:14:37.967Z,55.00
2019-04-20T07:17:34.965Z,55.20
2019-04-20T07:19:56.405Z,55.10
2019-04-20T07:22:39.446Z,56.10
2019-04-20T07:25:07.922Z,54.50
2019-04-20T07:27:41.546Z,53.90
2019-04-20T07:30:12.063Z,53.10
2019-04-20T07:32:49.659Z,54.10
2019-04-20T07:35:14.512Z,48.80
2019-04-20T07:40:20.616Z,49.40
2019-04-20T07:42:55.544Z,44.20
2019-04-20T07:48:04.922Z,43.50
2019-04-20T07:50:25.268Z,43.50
2019-04-20T07:52:51.624Z,40.90
2019-04-20T07:55:40.878Z,40.50
2019-04-20T07:57:58.075Z,39.90
2019-04-20T08:00:51.956Z,38.80
2019-04-20T08:03:29.374Z,37.90
2019-04-20T08:05:50.120Z,38.70
2019-04-20T08:08:28.116Z,36.10
2019-04-20T08:11:02.619Z,37.30
2019-04-20T08:13:40.360Z,37.60
2019-04-20T08:16:06.905Z,38.10
2019-04-20T08:18:40.226Z,38.20
2019-04-20T08:21:08.266Z,36.80
2019-04-20T08:23:39.065Z,35.90
2019-04-20T08:26:00.430Z,37.00
2019-04-20T08:28:35.902Z,36.20
2019-04-20T08:31:33.425Z,36.90
2019-04-20T08:34:33.731Z,36.50
2019-04-20T08:39:48.175Z,37.00
2019-04-20T08:42:00.552Z,36.50
2019-04-20T08:44:48.490Z,36.00
2019-04-20T08:47:16.169Z,36.00
2019-04-20T08:49:47.138Z,36.20
2019-04-20T08:52:34.334Z,35.90
2019-04-20T08:54:34.465Z,35.90
2019-04-20T08:56:55.292Z,35.20
2019-04-20T08:59:23.348Z,35.30
2019-04-20T09:01:53.534Z,37.00
2019-04-20T09:04:36.047Z,35.60
2019-04-20T09:07:06.468Z,35.60
2019-04-20T09:12:14.466Z,34.50
2019-04-20T09:14:30.261Z,37.20
2019-04-20T09:17:08.066Z,37.10
2019-04-20T09:19:46.954Z,35.20
2019-04-20T09:22:32.991Z,37.10
2019-04-20T09:25:36.484Z,36.50
2019-04-20T09:27:35.077Z,36.90
2019-04-20T09:30:09.224Z,36.40
2019-04-20T09:32:56.669Z,36.10
2019-04-20T09:35:36.087Z,35.30
2019-04-20T09:38:12.059Z,36.10
2019-04-20T09:40:43.462Z,36.50
2019-04-20T09:42:57.899Z,36.70
2019-04-20T09:45:38.231Z,35.50
2019-04-20T09:48:07.047Z,33.90
2019-04-20T09:50:55.559Z,35.80
2019-04-20T09:53:22.137Z,36.20
2019-04-20T09:55:56.755Z,36.30
2019-04-20T09:58:21.274Z,36.60
2019-04-20T10:01:02.057Z,37.50
2019-04-20T10:03:18.458Z,34.80
2019-04-20T10:05:49.519Z,35.30
2019-04-20T10:08:19.693Z,33.70
2019-04-20T10:10:51.174Z,35.60
2019-04-20T10:13:21.578Z,34.00
2019-04-20T10:15:51.437Z,35.40
2019-04-20T10:18:21.864Z,35.20
2019-04-20T10:20:51.710Z,34.50
2019-04-20T10:23:22.441Z,34.50
2019-04-20T10:25:52.404Z,34.10
2019-04-20T10:28:23.389Z,33.70
2019-04-20T10:30:53.095Z,34.00
2019-04-20T10:33:23.758Z,34.50
2019-04-20T10:35:53.906Z,34.10
2019-04-20T10:38:31.048Z,33.50
2019-04-20T10:41:08.341Z,32.70
2019-04-20T10:43:30.954Z,33.70
2019-04-20T10:46:00.824Z,33.20
2019-04-20T10:48:33.964Z,32.70
2019-04-20T10:51:03.052Z,32.20
2019-04-20T10:53:32.824Z,32.00
2019-04-20T10:56:03.432Z,32.10
2019-04-20T10:58:33.799Z,32.40
2019-04-20T11:01:03.904Z,32.20
2019-04-20T11:03:34.589Z,32.30
2019-04-20T11:06:04.882Z,32.30
2019-04-20T11:08:34.866Z,32.00
2019-04-20T11:11:13.106Z,31.60
2019-04-20T11:13:37.344Z,31.20
2019-04-20T11:16:08.498Z,33.00
2019-04-20T11:18:39.610Z,31.50
2019-04-20T11:21:09.418Z,30.00
2019-04-20T11:23:40.329Z,31.80
2019-04-20T11:26:10.554Z,31.60
2019-04-20T11:28:40.209Z,32.90
2019-04-20T11:31:10.270Z,31.60
2019-04-20T11:33:40.420Z,29.80
2019-04-20T11:36:10.168Z,30.30
2019-04-20T11:38:40.756Z,30.30
2019-04-20T11:41:18.173Z,29.80
2019-04-20T11:43:42.002Z,30.20
2019-04-20T11:46:12.339Z,30.10
2019-04-20T11:48:43.279Z,30.50
2019-04-20T11:51:13.753Z,31.40
2019-04-20T11:53:43.488Z,29.90
2019-04-20T11:56:18.175Z,30.00
2019-04-20T11:58:44.907Z,30.00
2019-04-20T12:01:39.241Z,29.70
2019-04-20T12:04:20.163Z,29.40
2019-04-20T12:06:34.860Z,30.70
2019-04-20T12:09:09.090Z,31.10
2019-04-20T12:11:53.510Z,30.20
2019-04-20T12:14:10.444Z,30.80
2019-04-20T12:16:40.084Z,30.50
2019-04-20T12:19:10.585Z,30.60
2019-04-20T12:21:40.921Z,30.70
2019-04-20T12:24:12.246Z,31.10
2019-04-20T12:26:42.741Z,30.30
2019-04-20T12:29:12.437Z,30.70
2019-04-20T12:31:44.346Z,30.00
2019-04-20T12:34:16.028Z,29.50
2019-04-20T12:36:46.953Z,30.40
2019-04-20T12:39:17.261Z,30.40
2019-04-20T12:41:52.894Z,29.20
2019-04-20T12:44:19.601Z,29.60
2019-04-20T12:46:49.885Z,29.70
2019-04-20T12:49:19.895Z,29.00
2019-04-20T12:51:54.651Z,28.70
2019-04-20T12:54:20.869Z,29.80
2019-04-20T12:56:50.752Z,29.90
2019-04-20T12:59:21.193Z,29.70
2019-04-20T13:01:51.368Z,29.50
2019-04-20T13:04:22.583Z,29.60
2019-04-20T13:06:55.222Z,29.20
2019-04-20T13:09:28.342Z,28.70
2019-04-20T13:12:05.420Z,29.70
2019-04-20T13:14:56.155Z,29.60
2019-04-20T13:17:26.247Z,29.30
2019-04-20T13:19:57.388Z,28.90
2019-04-20T13:22:27.143Z,29.10
2019-04-20T13:24:57.008Z,29.30
2019-04-20T13:27:27.056Z,28.40
2019-04-20T13:29:56.631Z,27.60
2019-04-20T13:32:27.627Z,27.60
2019-04-20T13:34:58.269Z,27.30
2019-04-20T13:37:28.494Z,29.30
2019-04-20T13:39:58.645Z,29.40
2019-04-20T13:42:30.197Z,28.70
2019-04-20T13:45:01.054Z,29.30
2019-04-20T13:47:30.946Z,29.30
2019-04-20T13:50:01.090Z,28.70
2019-04-20T13:52:31.164Z,28.90
2019-04-20T13:55:00.904Z,28.70
2019-04-20T13:57:49.551Z,28.80
2019-04-20T14:00:37.544Z,28.60
2019-04-20T14:03:12.881Z,28.90
2019-04-20T14:05:42.915Z,28.90
2019-04-20T14:08:17.642Z,28.50
2019-04-20T14:10:47.386Z,28.00
2019-04-20T14:13:20.329Z,27.40
2019-04-20T14:15:49.233Z,28.20
2019-04-20T14:18:19.433Z,29.20
2019-04-20T14:20:50.072Z,28.30
2019-04-20T14:23:21.068Z,28.90
2019-04-20T14:25:51.165Z,28.80
2019-04-20T14:28:21.026Z,28.50
2019-04-20T14:30:51.974Z,28.50
2019-04-20T14:33:22.884Z,28.90
2019-04-20T14:35:52.973Z,28.80
2019-04-20T14:38:22.642Z,28.90
2019-04-20T14:40:52.550Z,28.20
2019-04-20T14:43:22.435Z,28.60
2019-04-20T14:45:52.488Z,28.40
2019-04-20T14:48:22.768Z,28.40
2019-04-20T14:50:53.782Z,28.90
2019-04-20T14:53:23.458Z,28.30
2019-04-20T14:55:53.647Z,28.30
2019-04-20T14:58:43.922Z,28.50
2019-04-20T15:01:32.474Z,28.50
2019-04-20T15:04:08.993Z,28.20
2019-04-20T15:06:37.694Z,28.60
2019-04-20T15:09:08.948Z,28.40
2019-04-20T15:11:41.662Z,28.90
2019-04-20T15:14:11.104Z,27.50
2019-04-20T15:16:40.841Z,27.90
2019-04-20T15:19:11.686Z,28.50
2019-04-20T15:21:47.410Z,28.60
2019-04-20T15:24:17.786Z,28.80
2019-04-20T15:26:48.767Z,28.40
2019-04-20T15:29:18.504Z,29.10
2019-04-20T15:31:48.240Z,28.60
2019-04-20T15:34:19.539Z,28.10
2019-04-20T15:36:49.845Z,28.20
2019-04-20T15:39:19.542Z,28.00
2019-04-20T15:41:49.575Z,28.30
2019-04-20T15:44:19.448Z,28.70
2019-04-20T15:46:49.227Z,28.90
2019-04-20T15:49:19.898Z,29.70
2019-04-20T15:51:50.028Z,29.70
2019-04-20T15:54:19.811Z,29.80
2019-04-20T15:56:56.485Z,30.20
2019-04-20T15:59:22.173Z,30.00
2019-04-20T16:01:53.575Z,29.30
2019-04-20T16:04:43.471Z,29.90
2019-04-20T16:07:15.061Z,30.00
2019-04-20T16:09:46.270Z,30.10
2019-04-20T16:12:17.239Z,30.00
2019-04-20T16:14:47.408Z,30.60
2019-04-20T16:17:17.443Z,29.80
2019-04-20T16:19:55.394Z,29.90
2019-04-20T16:22:21.590Z,30.60
2019-04-20T16:24:53.703Z,30.00
2019-04-20T16:27:29.676Z,30.70
2019-04-20T16:29:59.894Z,30.50
2019-04-20T16:32:30.407Z,30.50
2019-04-20T16:35:00.371Z,30.20
2019-04-20T16:37:30.604Z,30.10
2019-04-20T16:40:00.805Z,30.50
2019-04-20T16:42:32.174Z,29.90
2019-04-20T16:45:03.174Z,29.70
2019-04-20T16:47:34.294Z,30.00
2019-04-20T16:50:06.933Z,30.30
2019-04-20T16:52:36.909Z,30.80
2019-04-20T16:55:08.213Z,31.00
2019-04-20T16:57:39.712Z,30.80
2019-04-20T17:00:11.506Z,31.30
2019-04-20T17:02:42.384Z,30.60
2019-04-20T17:05:13.526Z,30.50
2019-04-20T17:07:45.012Z,30.80
2019-04-20T17:10:17.929Z,31.20
2019-04-20T17:12:48.080Z,31.20
2019-04-20T17:15:19.480Z,31.50
2019-04-20T17:17:50.261Z,31.80
2019-04-20T17:20:21.991Z,32.80
2019-04-20T17:22:52.496Z,33.40
2019-04-20T17:25:22.186Z,33.70
2019-04-20T17:27:54.834Z,34.10
2019-04-20T17:30:45.973Z,35.00
2019-04-20T17:33:25.794Z,37.50
2019-04-20T17:36:03.596Z,39.80
2019-04-20T17:38:34.706Z,40.60
2019-04-20T17:41:14.657Z,44.10
2019-04-20T17:43:37.186Z,42.60
2019-04-20T17:46:10.106Z,43.60
2019-04-20T17:48:43.198Z,49.00
2019-04-20T17:51:23.384Z,46.10
2019-04-20T17:53:49.051Z,44.10
2019-04-20T17:56:12.150Z,43.90
2019-04-20T17:58:41.925Z,46.50
2019-04-20T18:01:34.844Z,46.20
2019-04-20T18:04:37.009Z,49.30
2019-04-20T18:06:50.536Z,55.90
2019-04-20T18:09:34.442Z,53.90
2019-04-20T18:11:46.425Z,56.00
2019-04-20T18:14:30.476Z,56.50
2019-04-20T18:17:13.749Z,56.00
2019-04-20T18:19:39.200Z,59.70
2019-04-20T18:22:11.818Z,59.80
2019-04-20T18:25:02.549Z,57.90
2019-04-20T18:27:37.530Z,59.90
2019-04-20T18:30:01.175Z,57.20
2019-04-20T18:32:21.193Z,56.70
2019-04-20T18:34:59.146Z,57.90
2019-04-20T18:37:28.652Z,57.70
2019-04-20T18:40:03.918Z,61.00
2019-04-20T18:42:36.727Z,66.10
2019-04-20T18:45:17.383Z,58.60
2019-04-20T18:47:49.342Z,62.60
2019-04-20T18:50:16.582Z,55.70
2019-04-20T18:52:37.860Z,60.60
2019-04-20T18:55:17.316Z,61.90
2019-04-20T18:57:41.583Z,53.70
2019-04-20T19:00:19.115Z,50.60
2019-04-20T19:02:52.033Z,50.10
2019-04-20T19:05:17.824Z,49.40
2019-04-20T19:07:57.217Z,49.00
2019-04-20T19:10:27.407Z,49.20
2019-04-20T19:12:59.353Z,49.40
2019-04-20T19:15:50.885Z,50.30
2019-04-20T19:18:18.440Z,49.60
2019-04-20T19:20:55.106Z,52.80
2019-04-20T19:23:25.107Z,53.70
2019-04-20T19:26:04.429Z,54.00
2019-04-20T19:28:31.855Z,54.20
2019-04-20T19:31:11.449Z,53.60
2019-04-20T19:33:52.072Z,53.10
2019-04-20T19:36:15.106Z,51.10
2019-04-20T19:38:46.557Z,50.70
2019-04-20T19:41:21.843Z,51.40
2019-04-20T19:43:49.022Z,51.40
2019-04-20T19:46:42.757Z,51.90
2019-04-20T19:48:49.697Z,52.10
2019-04-20T19:51:32.898Z,52.10
2019-04-20T19:54:09.487Z,52.80
2019-04-20T19:56:32.385Z,52.20
2019-04-20T19:59:01.146Z,52.10
2019-04-20T20:01:17.646Z,52.60
2019-04-20T20:03:55.769Z,52.20
2019-04-20T20:06:29.285Z,51.90
2019-04-20T20:08:55.802Z,52.10
2019-04-20T20:11:29.451Z,58.00
2019-04-20T20:13:55.446Z,61.10
2019-04-20T20:16:33.601Z,64.00
2019-04-20T20:19:05.901Z,65.60
2019-04-20T20:21:41.759Z,63.70
2019-04-20T20:23:59.713Z,62.30
2019-04-20T20:26:34.921Z,63.90
2019-04-20T20:29:14.618Z,63.00
2019-04-20T20:31:48.587Z,71.10
2019-04-20T20:34:14.589Z,72.90
2019-04-20T20:36:43.516Z,69.90
2019-04-20T20:39:19.301Z,71.10
2019-04-20T20:41:53.086Z,74.10
2019-04-20T20:44:26.099Z,74.80
2019-04-20T20:46:55.104Z,75.30
2019-04-20T20:49:32.804Z,78.40
2019-04-20T20:52:08.330Z,81.40
2019-04-20T20:54:35.949Z,82.50
2019-04-20T20:57:00.912Z,84.10
2019-04-20T20:59:35.848Z,84.30
2019-04-20T21:02:05.805Z,81.70
2019-04-20T21:04:24.050Z,82.60
2019-04-20T21:06:54.791Z,83.90
2019-04-20T21:09:25.661Z,83.50
2019-04-20T21:12:00.712Z,82.50
2019-04-20T21:14:31.123Z,81.80
2019-04-20T21:17:04.973Z,82.90
2019-04-20T21:19:50.865Z,83.50
2019-04-20T21:22:08.568Z,85.20
2019-04-20T21:24:39.975Z,86.90
2019-04-20T21:27:14.613Z,87.50
2019-04-20T21:29:47.485Z,88.40
2019-04-20T21:32:16.196Z,86.70
2019-04-20T21:34:51.293Z,85.90
2019-04-20T21:37:19.074Z,84.90
2019-04-20T21:39:55.408Z,85.20
2019-04-20T21:42:21.659Z,85.80
2019-04-20T21:44:51.999Z,85.80
2019-04-20T21:47:23.800Z,85.40
2019-04-20T21:50:08.341Z,86.10
2019-04-20T21:52:32.344Z,85.70
2019-04-20T21:54:56.205Z,86.20
2019-04-20T21:57:26.229Z,86.70
2019-04-20T22:00:08.412Z,87.00
2019-04-20T22:02:33.864Z,88.10
2019-04-20T22:05:01.260Z,89.60
2019-04-20T22:07:32.159Z,89.50
2019-04-20T22:10:02.712Z,88.70
2019-04-20T22:12:38.455Z,89.10
2019-04-20T22:15:15.114Z,88.90
2019-04-20T22:17:39.094Z,87.90
2019-04-20T22:20:20.224Z,87.10
2019-04-20T22:22:57.192Z,87.40
2019-04-20T22:25:28.642Z,87.30
2019-04-20T22:27:44.201Z,87.70
2019-04-20T22:30:14.769Z,87.80
2019-04-20T22:32:49.577Z,89.10
2019-04-20T22:35:17.515Z,89.50
2019-04-20T22:38:08.964Z,89.10
2019-04-20T22:40:36.771Z,88.70
2019-04-20T22:43:06.543Z,88.70
2019-04-20T22:45:42.232Z,88.80
2019-04-20T22:48:11.029Z,88.30
2019-04-20T22:51:02.749Z,86.40
2019-04-20T22:53:25.004Z,86.20
2019-04-20T22:56:02.851Z,87.40
2019-04-20T22:58:28.984Z,87.80
2019-04-20T23:00:52.002Z,88.00
2019-04-20T23:03:16.798Z,87.40
2019-04-20T23:05:46.973Z,85.50
2019-04-20T23:08:17.077Z,86.50
2019-04-20T23:10:48.134Z,86.80
2019-04-20T23:13:21.198Z,87.60
2019-04-20T23:15:55.419Z,86.10
2019-04-20T23:18:22.325Z,84.20
2019-04-20T23:20:56.590Z,82.80
2019-04-20T23:23:27.061Z,82.50
2019-04-20T23:25:54.793Z,81.90
2019-04-20T23:28:24.556Z,81.60
2019-04-20T23:30:59.834Z,80.50
2019-04-20T23:33:25.684Z,80.80
2019-04-20T23:35:59.173Z,81.00
2019-04-20T23:38:26.680Z,81.10
2019-04-20T23:40:57.666Z,82.10
2019-04-20T23:43:33.337Z,83.00
2019-04-20T23:46:23.957Z,82.60
2019-04-20T23:49:13.556Z,82.10
2019-04-20T23:52:02.322Z,81.30
2019-04-20T23:54:17.655Z,82.20
2019-04-20T23:56:41.562Z,83.30
2019-04-20T23:59:12.759Z,84.30
